createdAt,value
2023-04-25T04:26:08.371Z,11.79
2023-04-25T04:30:12.095Z,11.79
2023-04-25T04:34:14.907Z,11.23
2023-04-25T04:38:18.019Z,11.22
2023-04-25T04:42:20.745Z,11.15
2023-04-25T04:46:25.983Z,11.09
2023-04-25T04:50:29.490Z,10.98
2023-04-25T04:54:33.165Z,10.76
2023-04-25T04:58:37.896Z,10.68
2023-04-25T05:02:41.459Z,10.57
2023-04-25T05:06:48.922Z,10.49
2023-04-25T05:10:52.391Z,10.40
2023-04-25T05:14:55.488Z,10.36
2023-04-25T05:19:03.298Z,10.39
2023-04-25T05:23:06.268Z,10.42
2023-04-25T05:27:09.424Z,10.34
2023-04-25T05:31:12.688Z,10.31
2023-04-25T05:35:16.143Z,10.38
2023-04-25T05:39:19.795Z,10.33
2023-04-25T05:43:24.150Z,10.38
2023-04-25T05:47:26.931Z,10.36
2023-04-25T05:51:30.320Z,10.28
2023-04-25T05:55:34.586Z,10.19
2023-04-25T05:59:39.676Z,10.31
2023-04-25T06:04:04.771Z,10.21
2023-04-25T06:08:12.080Z,10.00
2023-04-25T06:12:30.827Z,10.04
2023-04-25T06:16:36.284Z,9.90
2023-04-25T06:20:39.027Z,9.82
2023-04-25T06:24:42.366Z,9.66
2023-04-25T06:28:45.534Z,9.68
2023-04-25T06:32:48.961Z,9.58
2023-04-25T06:36:53.026Z,9.54
2023-04-25T06:40:57.099Z,9.48
2023-04-25T06:45:00.636Z,9.52
2023-04-25T06:49:05.015Z,9.58
2023-04-25T06:53:10.474Z,9.63
2023-04-25T06:57:14.526Z,9.72
2023-04-25T07:01:17.613Z,9.77
2023-04-25T07:05:20.771Z,9.95
2023-04-25T07:09:23.714Z,10.01
2023-04-25T07:13:27.525Z,10.36
2023-04-25T07:17:31.612Z,10.45
2023-04-25T07:21:35.263Z,10.71
2023-04-25T07:25:38.366Z,10.86
2023-04-25T07:29:42.221Z,11.01
2023-04-25T07:33:52.137Z,11.07
2023-04-25T07:38:23.412Z,11.27
2023-04-25T07:42:30.327Z,11.39
2023-04-25T07:46:43.477Z,11.62
2023-04-25T07:50:49.279Z,11.87
2023-04-25T07:54:54.105Z,11.85
2023-04-25T07:58:58.915Z,12.30
2023-04-25T08:03:02.850Z,12.38
2023-04-25T08:07:06.258Z,12.93
2023-04-25T08:11:11.768Z,13.01
2023-04-25T08:15:14.962Z,13.08
2023-04-25T08:19:18.788Z,13.21
2023-04-25T08:23:22.207Z,13.34
2023-04-25T08:27:26.362Z,13.14
2023-04-25T08:31:29.561Z,13.47
2023-04-25T08:35:34.349Z,14.10
2023-04-25T08:40:04.898Z,13.78
2023-04-25T08:44:27.896Z,14.39
2023-04-25T08:48:41.766Z,15.15
2023-04-25T08:52:48.617Z,14.77
2023-04-25T08:56:57.012Z,15.06
2023-04-25T09:01:05.343Z,15.39
2023-04-25T09:05:21.486Z,15.46
2023-04-25T09:09:33.390Z,15.58
2023-04-25T09:13:37.197Z,15.56
2023-04-25T09:17:45.561Z,15.29
2023-04-25T09:21:58.501Z,15.48
2023-04-25T09:26:05.562Z,15.02
2023-04-25T09:30:12.114Z,15.11
2023-04-25T09:34:18.659Z,15.89
2023-04-25T09:38:27.158Z,15.83
2023-04-25T09:42:35.895Z,15.47
2023-04-25T09:47:00.847Z,15.82
2023-04-25T09:51:33.259Z,15.59
2023-04-25T09:55:41.875Z,15.10
2023-04-25T10:00:12.188Z,16.59
2023-04-25T10:04:30.316Z,15.94
2023-04-25T10:08:50.111Z,15.47
2023-04-25T10:12:56.824Z,16.41
2023-04-25T10:17:27.053Z,16.73
2023-04-25T10:22:17.197Z,16.51
2023-04-25T10:26:47.991Z,16.27
2023-04-25T10:31:09.869Z,16.46
2023-04-25T10:35:39.346Z,15.97
2023-04-25T10:39:46.040Z,15.59
2023-04-25T10:44:05.638Z,15.43
2023-04-25T10:48:30.701Z,15.09
2023-04-25T10:52:38.410Z,14.95
2023-04-25T10:56:47.065Z,14.87
2023-04-25T11:00:57.628Z,14.86
2023-04-25T11:05:01.774Z,14.51
2023-04-25T11:09:12.029Z,14.38
2023-04-25T11:13:15.695Z,14.41
2023-04-25T11:17:19.889Z,14.77
2023-04-25T11:21:23.910Z,15.09
2023-04-25T11:25:31.504Z,15.46
2023-04-25T11:29:35.882Z,15.83
2023-04-25T11:33:42.478Z,16.51
2023-04-25T11:37:48.038Z,16.20
2023-04-25T11:41:52.211Z,16.18
2023-04-25T11:45:57.403Z,16.56
2023-04-25T11:50:04.083Z,16.34
2023-04-25T11:54:07.150Z,16.07
2023-04-25T11:58:20.190Z,15.53
2023-04-25T12:02:38.004Z,15.59
2023-04-25T12:06:56.437Z,17.15
2023-04-25T12:11:14.216Z,17.11
2023-04-25T12:15:27.972Z,16.68
2023-04-25T12:19:35.939Z,16.30
2023-04-25T12:23:40.508Z,16.01
2023-04-25T12:27:43.327Z,15.86
2023-04-25T12:31:46.774Z,16.18
2023-04-25T12:35:50.180Z,15.97
2023-04-25T12:39:53.781Z,15.65
2023-04-25T12:43:56.645Z,15.26
2023-04-25T12:48:03.424Z,15.48
2023-04-25T12:52:08.990Z,16.47
2023-04-25T12:56:12.448Z,17.28
2023-04-25T13:00:16.367Z,17.99
2023-04-25T13:04:22.479Z,17.52
2023-04-25T13:08:25.693Z,19.40
2023-04-25T13:12:33.442Z,20.46
2023-04-25T13:16:36.794Z,19.96
2023-04-25T13:20:40.472Z,20.23
2023-04-25T13:24:43.453Z,20.97
2023-04-25T13:28:48.858Z,20.53
2023-04-25T13:32:52.692Z,20.97
2023-04-25T13:36:57.253Z,19.85
2023-04-25T13:41:01.169Z,18.24
2023-04-25T13:45:08.905Z,18.61
2023-04-25T13:49:13.777Z,19.76
2023-04-25T13:53:19.134Z,20.98
2023-04-25T13:57:24.996Z,21.05
2023-04-25T14:01:29.209Z,20.86
2023-04-25T14:05:32.731Z,21.28
2023-04-25T14:09:35.639Z,21.42
2023-04-25T14:13:38.674Z,20.46
2023-04-25T14:17:41.522Z,20.38
2023-04-25T14:21:44.842Z,21.05
2023-04-25T14:25:47.749Z,21.33
2023-04-25T14:29:50.771Z,21.13
2023-04-25T14:33:53.632Z,21.35
2023-04-25T14:37:57.925Z,20.62
2023-04-25T14:42:01.849Z,19.94
2023-04-25T14:46:06.183Z,20.11
2023-04-25T14:50:09.854Z,18.88
2023-04-25T14:54:13.271Z,18.13
2023-04-25T14:58:16.880Z,17.99
2023-04-25T15:02:19.975Z,19.14
2023-04-25T15:06:22.801Z,17.02
2023-04-25T15:10:25.852Z,18.31
2023-04-25T15:14:29.119Z,19.05
2023-04-25T15:18:32.514Z,18.34
2023-04-25T15:22:35.295Z,17.33
